Aviation Digital Data Service (ADDS)

Output produced by TAFs form (0441 UTC 28 July 2017)
found at http://www.aviationweather.gov/adds/tafs/
 
METAR text: RJOZ 272342Z 35003KT 300V030 6000 FEW008 SCT020 29/27 Q1008 RMK 1ST008 4CU020 A2979
Conditions at: RJOZ (OZUKI (JMSDF) , JP) observed 2342 UTC 27 July 2017
Temperature: 29.0°C (84°F)
Dewpoint: 27.0°C (81°F) [RH = 89%]
Pressure (altimeter): 29.76 inches Hg (1008.0 mb)
Winds: from the N (350 degrees) at 3 MPH (3 knots; 1.6 m/s)
Visibility: 4 miles (6 km)
Ceiling: at least 12,000 feet AGL
Clouds: few clouds at 800 feet AGL
scattered clouds at 2000 feet AGL
Weather: no significant weather observed at this time